createdAt,value
2018-07-28T00:02:15.537Z,9.20
2018-07-28T00:04:43.768Z,10.00
2018-07-28T00:07:11.984Z,9.50
2018-07-28T00:09:40.216Z,9.50
2018-07-28T00:12:08.494Z,9.60
2018-07-28T00:14:36.602Z,10.00
2018-07-28T00:17:04.989Z,9.80
2018-07-28T00:19:33.108Z,9.90
2018-07-28T00:22:01.273Z,9.80
2018-07-28T00:24:29.403Z,10.10
2018-07-28T00:26:57.584Z,10.50
2018-07-28T00:29:25.862Z,10.90
2018-07-28T00:31:53.980Z,10.90
2018-07-28T00:34:22.106Z,12.50
2018-07-28T00:36:50.256Z,14.70
2018-07-28T00:39:18.492Z,14.40
2018-07-28T00:41:46.660Z,13.50
2018-07-28T00:44:14.809Z,13.80
2018-07-28T00:46:42.944Z,14.10
2018-07-28T00:49:11.048Z,14.50
2018-07-28T00:51:39.167Z,14.90
2018-07-28T00:54:07.478Z,15.50
2018-07-28T00:56:35.566Z,16.70
2018-07-28T00:59:03.745Z,17.20
2018-07-28T01:01:31.882Z,17.80
2018-07-28T01:04:00.033Z,17.00
2018-07-28T01:06:28.170Z,17.00
2018-07-28T01:08:56.539Z,15.80
2018-07-28T01:11:24.644Z,14.00
2018-07-28T01:16:20.815Z,14.00
2018-07-28T01:18:48.940Z,16.00
2018-07-28T01:21:17.066Z,16.90
2018-07-28T01:23:45.252Z,17.00
2018-07-28T01:26:13.514Z,15.00
2018-07-28T01:28:41.665Z,13.30
2018-07-28T01:31:10.182Z,12.90
2018-07-28T01:33:38.350Z,12.80
2018-07-28T01:36:06.529Z,12.80
2018-07-28T01:38:34.633Z,12.70
2018-07-28T01:41:02.822Z,12.80
2018-07-28T01:43:30.988Z,12.90
2018-07-28T01:45:59.191Z,12.70
2018-07-28T01:48:27.510Z,12.80
2018-07-28T01:50:55.685Z,12.80
2018-07-28T01:53:23.829Z,13.00
2018-07-28T01:55:52.037Z,13.30
2018-07-28T01:58:20.173Z,13.50
2018-07-28T02:00:48.305Z,14.20
2018-07-28T02:03:16.559Z,13.80
2018-07-28T02:05:44.782Z,13.80
2018-07-28T02:08:12.929Z,14.60
2018-07-28T02:10:41.158Z,14.90
2018-07-28T02:13:09.407Z,15.90
2018-07-28T02:15:37.600Z,16.10
2018-07-28T02:18:05.914Z,14.90
2018-07-28T02:20:34.131Z,14.50
2018-07-28T02:23:02.326Z,14.80
2018-07-28T02:25:30.446Z,14.70
2018-07-28T02:30:26.536Z,14.60
2018-07-28T02:32:54.709Z,14.90
2018-07-28T02:35:22.808Z,15.30
2018-07-28T02:37:50.944Z,15.00
2018-07-28T02:40:19.068Z,14.90
2018-07-28T02:42:47.240Z,15.40
2018-07-28T02:47:43.701Z,16.20
2018-07-28T02:50:12.153Z,17.20
2018-07-28T02:52:40.482Z,18.00
2018-07-28T02:55:09.438Z,18.80
2018-07-28T02:57:37.796Z,18.30
2018-07-28T03:00:06.925Z,17.60
2018-07-28T03:02:35.194Z,17.70
2018-07-28T03:07:31.321Z,17.00
2018-07-28T03:09:59.469Z,16.30
2018-07-28T03:12:27.589Z,16.70
2018-07-28T03:14:55.717Z,16.20
2018-07-28T03:17:23.913Z,17.60
2018-07-28T03:19:52.092Z,18.20
2018-07-28T03:22:20.277Z,18.90
2018-07-28T03:24:48.397Z,19.50
2018-07-28T03:27:16.549Z,19.80
2018-07-28T03:29:44.815Z,20.30
2018-07-28T03:32:13.021Z,20.10
2018-07-28T03:34:41.133Z,20.30
2018-07-28T03:37:09.345Z,20.00
2018-07-28T03:39:37.485Z,19.70
2018-07-28T03:42:05.698Z,20.30
2018-07-28T03:44:33.884Z,20.00
2018-07-28T03:47:02.009Z,19.60
2018-07-28T03:49:30.133Z,20.10
2018-07-28T03:51:58.594Z,19.10
2018-07-28T03:54:26.704Z,18.90
2018-07-28T03:56:54.910Z,18.70
2018-07-28T03:59:23.061Z,19.00
2018-07-28T04:01:51.343Z,19.80
2018-07-28T04:06:47.372Z,20.30
2018-07-28T04:09:15.545Z,20.90
2018-07-28T04:14:11.645Z,21.20
2018-07-28T04:16:39.887Z,20.90
2018-07-28T04:19:08.055Z,19.90
2018-07-28T04:21:35.561Z,19.90
2018-07-28T04:24:03.767Z,19.60
2018-07-28T04:26:31.304Z,19.30
2018-07-28T04:29:00.042Z,19.40
2018-07-28T04:31:28.185Z,19.20
2018-07-28T04:33:56.314Z,19.80
2018-07-28T04:36:23.748Z,20.30
2018-07-28T04:38:51.324Z,20.00
2018-07-28T04:41:18.788Z,20.30
2018-07-28T04:43:46.236Z,20.80
2018-07-28T04:46:13.684Z,20.90
2018-07-28T04:48:41.169Z,21.20
2018-07-28T04:51:08.625Z,21.30
2018-07-28T04:53:36.949Z,21.30
2018-07-28T04:56:04.465Z,21.40
2018-07-28T04:58:31.920Z,21.40
2018-07-28T05:01:00.077Z,21.70
2018-07-28T05:03:28.240Z,21.40
2018-07-28T05:05:56.497Z,21.80
2018-07-28T05:08:24.660Z,20.90
2018-07-28T05:10:52.781Z,21.80
2018-07-28T05:13:20.220Z,21.40
2018-07-28T05:15:47.689Z,21.80
2018-07-28T05:18:15.125Z,21.90
2018-07-28T05:20:42.705Z,21.80
2018-07-28T05:23:10.169Z,22.10
2018-07-28T05:25:37.610Z,21.70
2018-07-28T05:28:05.280Z,21.30
2018-07-28T05:30:32.949Z,22.30
2018-07-28T05:33:01.073Z,22.50
2018-07-28T05:35:28.541Z,21.90
2018-07-28T05:37:56.118Z,22.30
2018-07-28T05:40:23.907Z,22.10
2018-07-28T05:42:51.337Z,22.60
2018-07-28T05:45:18.812Z,24.00
2018-07-28T05:47:46.244Z,22.90
2018-07-28T05:50:13.741Z,22.90
2018-07-28T05:52:41.101Z,24.20
2018-07-28T05:55:08.592Z,23.00
2018-07-28T05:57:38.341Z,23.40
2018-07-28T06:00:06.027Z,23.40
2018-07-28T06:02:33.531Z,23.40
2018-07-28T06:05:00.929Z,24.20
2018-07-28T06:07:28.697Z,23.50
2018-07-28T06:09:56.144Z,24.20
2018-07-28T06:12:23.576Z,24.10
2018-07-28T06:14:51.749Z,23.90
2018-07-28T06:17:19.229Z,22.40
2018-07-28T06:19:46.697Z,22.70
2018-07-28T06:24:41.421Z,23.80
2018-07-28T06:27:08.915Z,23.80
2018-07-28T06:29:36.462Z,23.40
2018-07-28T06:32:05.275Z,23.40
2018-07-28T06:34:32.673Z,22.80
2018-07-28T06:39:30.981Z,21.80
2018-07-28T06:41:59.033Z,20.00
2018-07-28T06:44:27.162Z,19.50
2018-07-28T06:46:55.281Z,19.00
2018-07-28T06:49:23.437Z,18.20
2018-07-28T06:51:51.797Z,17.90
2018-07-28T06:54:20.072Z,17.40
2018-07-28T06:56:48.176Z,17.10
2018-07-28T06:59:16.306Z,17.00
2018-07-28T07:01:44.425Z,16.50
2018-07-28T07:04:13.136Z,15.60
2018-07-28T07:06:41.437Z,14.90
2018-07-28T07:09:11.161Z,14.90
2018-07-28T07:11:39.396Z,15.00
2018-07-28T07:14:07.613Z,14.00
2018-07-28T07:16:36.005Z,13.80
2018-07-28T07:19:04.145Z,14.00
2018-07-28T07:21:32.259Z,13.80
2018-07-28T07:24:00.421Z,13.40
2018-07-28T07:26:27.868Z,13.10
2018-07-28T07:28:55.324Z,13.30
2018-07-28T07:31:23.549Z,13.00
2018-07-28T07:36:18.656Z,13.00
2018-07-28T07:38:46.001Z,13.00
2018-07-28T07:41:13.445Z,12.80
2018-07-28T07:43:42.217Z,11.80
2018-07-28T07:46:09.704Z,13.10
2018-07-28T07:48:37.663Z,15.20
2018-07-28T07:51:05.123Z,15.70
2018-07-28T07:53:32.584Z,15.10
2018-07-28T07:56:00.050Z,16.90
2018-07-28T07:58:27.632Z,16.70
2018-07-28T08:00:55.080Z,16.60
2018-07-28T08:03:22.505Z,16.60
2018-07-28T08:05:50.642Z,16.30
2018-07-28T08:08:18.088Z,16.20
2018-07-28T08:10:46.282Z,16.60
2018-07-28T08:13:13.737Z,16.70
2018-07-28T08:15:41.963Z,16.80
2018-07-28T08:18:10.102Z,17.10
2018-07-28T08:20:37.565Z,17.70
2018-07-28T08:28:00.055Z,17.80
2018-07-28T08:30:28.195Z,17.10
2018-07-28T08:32:55.700Z,17.80
2018-07-28T08:35:23.145Z,18.00
2018-07-28T08:37:50.617Z,18.20
2018-07-28T08:40:18.085Z,18.20
2018-07-28T08:42:46.358Z,18.40
2018-07-28T08:45:14.756Z,17.40
2018-07-28T08:47:43.029Z,16.70
2018-07-28T08:50:10.517Z,17.00
2018-07-28T08:55:05.470Z,16.60
2018-07-28T08:57:32.920Z,17.00
2018-07-28T09:00:00.404Z,16.30
2018-07-28T09:02:28.505Z,16.80
2018-07-28T09:04:55.976Z,17.00
2018-07-28T09:07:23.427Z,17.30
2018-07-28T09:09:50.901Z,16.40
2018-07-28T09:12:18.409Z,17.40
2018-07-28T09:14:46.009Z,18.30
2018-07-28T09:17:13.428Z,19.60
2018-07-28T09:19:40.856Z,17.80
2018-07-28T09:22:08.348Z,15.70
2018-07-28T09:24:35.775Z,14.70
2018-07-28T09:27:03.221Z,14.60
2018-07-28T09:29:30.761Z,16.20
2018-07-28T09:31:58.216Z,18.90
2018-07-28T09:34:25.632Z,17.00
2018-07-28T09:36:53.142Z,18.00
2018-07-28T09:39:20.553Z,16.10
2018-07-28T09:41:48.072Z,14.90
2018-07-28T09:44:15.802Z,13.60
2018-07-28T09:46:43.230Z,13.30
2018-07-28T09:51:38.160Z,12.20
2018-07-28T09:54:05.678Z,10.00
2018-07-28T09:56:33.136Z,10.10
2018-07-28T09:59:00.706Z,12.00
2018-07-28T10:01:28.276Z,11.50
2018-07-28T10:03:56.393Z,12.00
2018-07-28T10:06:24.497Z,10.20
2018-07-28T10:08:51.938Z,10.10
2018-07-28T10:11:19.386Z,8.90
2018-07-28T10:13:46.860Z,10.20
2018-07-28T10:16:14.312Z,9.40
2018-07-28T10:18:41.764Z,11.30
2018-07-28T10:21:10.621Z,10.10
2018-07-28T10:23:38.109Z,10.10
2018-07-28T10:26:05.834Z,11.10
2018-07-28T10:28:33.462Z,10.00
2018-07-28T10:31:00.889Z,11.00
2018-07-28T10:33:29.069Z,10.20
2018-07-28T10:35:56.520Z,8.30
2018-07-28T10:38:23.959Z,9.20
2018-07-28T10:40:51.549Z,10.70
2018-07-28T10:43:19.058Z,9.90
2018-07-28T10:45:46.896Z,10.30
2018-07-28T10:48:15.502Z,10.70
2018-07-28T10:50:44.027Z,10.20
2018-07-28T10:53:11.457Z,10.40
2018-07-28T10:55:39.604Z,9.80
2018-07-28T10:58:07.045Z,10.50
2018-07-28T11:00:35.184Z,10.80
2018-07-28T11:03:03.325Z,11.30
2018-07-28T11:05:30.771Z,9.70
2018-07-28T11:07:59.277Z,6.70
2018-07-28T11:10:26.709Z,5.60
2018-07-28T11:12:54.133Z,7.10
2018-07-28T11:15:21.560Z,6.70
2018-07-28T11:17:49.660Z,7.10
2018-07-28T11:20:17.072Z,6.60
2018-07-28T11:22:44.521Z,5.60
2018-07-28T11:25:12.651Z,5.10
2018-07-28T11:27:40.081Z,3.80
2018-07-28T11:30:08.158Z,2.90
2018-07-28T11:32:41.364Z,3.30
2018-07-28T11:35:14.486Z,3.40
2018-07-28T11:37:48.552Z,3.30
2018-07-28T11:40:21.637Z,3.70
2018-07-28T11:42:54.686Z,3.70
2018-07-28T11:45:22.810Z,3.50
2018-07-28T11:47:50.925Z,3.30
2018-07-28T11:50:19.018Z,3.70
2018-07-28T11:52:47.137Z,3.70
2018-07-28T11:55:15.240Z,4.30
2018-07-28T11:57:43.345Z,4.70
2018-07-28T12:00:11.461Z,3.70
2018-07-28T12:02:40.077Z,4.00
2018-07-28T12:05:08.441Z,3.80
2018-07-28T12:07:36.557Z,4.20
2018-07-28T12:10:06.509Z,4.30
2018-07-28T12:12:34.663Z,3.60
2018-07-28T12:15:02.762Z,3.80
2018-07-28T12:17:30.865Z,4.30
2018-07-28T12:19:58.987Z,4.70
2018-07-28T12:22:27.185Z,4.50
2018-07-28T12:24:55.294Z,5.00
2018-07-28T12:29:51.293Z,5.50
2018-07-28T12:32:19.442Z,5.20
2018-07-28T12:34:47.634Z,4.70
2018-07-28T12:37:15.681Z,5.30
2018-07-28T12:39:43.782Z,4.90
2018-07-28T12:42:12.133Z,4.70
2018-07-28T12:44:42.586Z,5.50
2018-07-28T12:47:10.805Z,5.10
2018-07-28T12:49:38.930Z,4.60
2018-07-28T12:52:08.974Z,3.50
2018-07-28T12:54:37.422Z,3.10
2018-07-28T12:57:05.545Z,1.00
2018-07-28T13:02:01.679Z,1.00
2018-07-28T13:04:29.791Z,1.00
2018-07-28T13:06:57.329Z,1.00
2018-07-28T13:09:24.744Z,1.00
2018-07-28T13:11:52.185Z,1.00
2018-07-28T13:14:20.574Z,1.00
2018-07-28T13:16:48.046Z,1.00
2018-07-28T13:19:15.526Z,1.00
2018-07-28T13:21:42.964Z,1.00
2018-07-28T13:24:10.418Z,1.00
2018-07-28T13:26:37.859Z,1.00
2018-07-28T13:29:05.352Z,1.00
2018-07-28T13:31:32.785Z,1.00
2018-07-28T13:34:00.247Z,1.00
2018-07-28T13:36:27.696Z,1.00
2018-07-28T13:38:55.132Z,1.00
2018-07-28T13:41:22.575Z,1.80
2018-07-28T13:43:50.057Z,2.20
2018-07-28T13:46:17.508Z,1.50
2018-07-28T13:48:44.944Z,2.00
2018-07-28T13:51:12.407Z,2.60
2018-07-28T13:53:39.832Z,2.90
2018-07-28T13:56:07.304Z,2.40
2018-07-28T13:58:34.741Z,3.00
2018-07-28T14:01:02.206Z,2.00
2018-07-28T14:03:29.624Z,1.60
2018-07-28T14:05:57.071Z,1.80
2018-07-28T14:08:24.476Z,1.90
2018-07-28T14:10:51.905Z,2.90
2018-07-28T14:13:19.420Z,2.10
2018-07-28T14:18:14.532Z,2.50
2018-07-28T14:20:41.912Z,1.70
2018-07-28T14:23:09.386Z,1.40
2018-07-28T14:25:36.905Z,2.60
2018-07-28T14:28:04.382Z,2.20
2018-07-28T14:32:59.149Z,2.60
2018-07-28T14:35:26.641Z,2.80
2018-07-28T14:37:54.138Z,3.00
2018-07-28T14:40:21.613Z,3.40
2018-07-28T14:42:49.083Z,2.90
2018-07-28T14:45:16.536Z,2.70
2018-07-28T14:47:44.014Z,2.10
2018-07-28T14:50:11.954Z,2.70
2018-07-28T14:52:39.386Z,2.50
2018-07-28T14:55:06.868Z,2.50
2018-07-28T14:57:34.331Z,1.50
2018-07-28T15:00:01.756Z,2.20
2018-07-28T15:04:56.432Z,2.70
2018-07-28T15:07:23.949Z,2.90
2018-07-28T15:09:51.341Z,2.60
2018-07-28T15:12:18.936Z,3.50
2018-07-28T15:14:46.352Z,3.30
2018-07-28T15:22:08.773Z,2.40
2018-07-28T15:24:36.201Z,2.70
2018-07-28T15:27:03.789Z,2.90
2018-07-28T15:29:31.208Z,2.90
2018-07-28T15:31:58.656Z,3.60
2018-07-28T15:34:26.332Z,3.50
2018-07-28T15:39:21.249Z,2.80
2018-07-28T15:41:49.661Z,3.30
2018-07-28T15:44:17.343Z,3.90
2018-07-28T15:46:44.805Z,4.00
2018-07-28T15:49:12.341Z,5.20
2018-07-28T15:51:39.735Z,6.10
2018-07-28T15:56:34.643Z,6.30
2018-07-28T16:01:30.610Z,5.80
2018-07-28T16:03:58.713Z,5.80
2018-07-28T16:06:26.897Z,6.10
2018-07-28T16:08:55.032Z,6.30
2018-07-28T16:11:23.614Z,6.70
2018-07-28T16:13:51.741Z,7.00
2018-07-28T16:16:19.856Z,6.70
2018-07-28T16:18:47.984Z,7.30
2018-07-28T16:21:16.086Z,7.40
2018-07-28T16:23:44.206Z,7.40
2018-07-28T16:26:12.309Z,7.60
2018-07-28T16:28:40.616Z,8.00
2018-07-28T16:31:08.144Z,8.10
2018-07-28T16:33:35.825Z,8.30
2018-07-28T16:36:03.987Z,8.90
2018-07-28T16:38:32.496Z,9.20
2018-07-28T16:41:01.901Z,9.40
2018-07-28T16:43:30.016Z,9.70
2018-07-28T16:45:58.130Z,9.80
2018-07-28T16:48:26.969Z,10.30
2018-07-28T16:50:55.340Z,10.40
2018-07-28T16:53:23.488Z,10.40
2018-07-28T16:55:51.605Z,10.30
2018-07-28T16:58:20.337Z,10.50
2018-07-28T17:00:48.469Z,10.60
2018-07-28T17:05:44.629Z,10.60
2018-07-28T17:08:12.751Z,10.60
2018-07-28T17:10:40.909Z,10.50
2018-07-28T17:13:09.067Z,10.20
2018-07-28T17:15:37.366Z,9.80
2018-07-28T17:18:05.079Z,9.70
2018-07-28T17:20:32.506Z,9.60
2018-07-28T17:23:01.140Z,9.20
2018-07-28T17:25:28.564Z,9.70
2018-07-28T17:32:51.008Z,10.20
2018-07-28T17:35:18.547Z,10.20
2018-07-28T17:37:45.984Z,10.00
2018-07-28T17:40:13.433Z,10.10
2018-07-28T17:42:40.883Z,10.20
2018-07-28T17:45:08.530Z,10.50
2018-07-28T17:47:35.973Z,10.30
2018-07-28T17:52:30.908Z,10.10
2018-07-28T17:54:58.325Z,10.00
2018-07-28T17:57:25.778Z,10.00
2018-07-28T17:59:53.341Z,10.10
2018-07-28T18:02:20.745Z,8.00
2018-07-28T18:04:48.311Z,5.00
2018-07-28T18:07:16.437Z,5.90
2018-07-28T18:09:44.578Z,7.20
2018-07-28T18:12:12.934Z,7.70
2018-07-28T18:14:41.061Z,8.50
2018-07-28T18:19:37.203Z,7.10
2018-07-28T18:22:05.254Z,4.90
2018-07-28T18:27:01.370Z,4.30
2018-07-28T18:29:29.545Z,4.30
2018-07-28T18:31:57.641Z,3.60
2018-07-28T18:34:25.797Z,3.40
2018-07-28T18:36:53.981Z,3.40
2018-07-28T18:39:22.106Z,2.80
2018-07-28T18:41:50.229Z,2.90
2018-07-28T18:44:18.305Z,3.10
2018-07-28T18:46:46.415Z,2.60
2018-07-28T18:49:14.510Z,3.00
2018-07-28T18:51:42.615Z,3.30
2018-07-28T18:54:10.714Z,3.00
2018-07-28T18:56:38.852Z,3.00
2018-07-28T18:59:07.129Z,3.40
2018-07-28T19:01:35.335Z,3.70
2018-07-28T19:04:03.456Z,3.70
2018-07-28T19:06:31.633Z,3.90
2018-07-28T19:09:05.234Z,4.00
2018-07-28T19:11:33.341Z,4.20
2018-07-28T19:14:06.878Z,4.10
2018-07-28T19:16:34.953Z,4.10
2018-07-28T19:19:08.365Z,4.30
2018-07-28T19:21:36.473Z,4.40
2018-07-28T19:24:04.637Z,4.80
2018-07-28T19:26:32.853Z,4.80
2018-07-28T19:29:06.383Z,4.80
2018-07-28T19:31:34.478Z,5.00
2018-07-28T19:34:01.928Z,4.90
2018-07-28T19:36:35.502Z,5.00
2018-07-28T19:39:05.381Z,5.10
2018-07-28T19:43:44.510Z,5.20
2018-07-28T19:48:40.492Z,5.50
2018-07-28T19:51:08.654Z,5.50
2018-07-28T19:53:36.785Z,5.60
2018-07-28T19:56:05.041Z,5.50
2018-07-28T19:58:33.132Z,5.10
2018-07-28T20:01:01.299Z,5.30
2018-07-28T20:05:57.376Z,5.40
2018-07-28T20:08:25.497Z,5.60
2018-07-28T20:10:53.608Z,5.60
2018-07-28T20:13:21.949Z,5.60
2018-07-28T20:15:50.091Z,5.70
2018-07-28T20:18:18.207Z,6.00
2018-07-28T20:20:45.636Z,5.90
2018-07-28T20:23:13.049Z,5.90
2018-07-28T20:25:40.681Z,6.10
2018-07-28T20:28:08.226Z,6.10
2018-07-28T20:30:35.828Z,6.20
2018-07-28T20:33:03.365Z,6.40
2018-07-28T20:35:30.828Z,6.50
2018-07-28T20:37:58.261Z,6.60
2018-07-28T20:40:25.775Z,6.70
2018-07-28T20:42:53.181Z,7.30
2018-07-28T20:45:20.609Z,6.90
2018-07-28T20:47:48.018Z,6.90
2018-07-28T20:50:15.564Z,6.80
2018-07-28T20:52:43.050Z,7.00
2018-07-28T20:55:10.519Z,7.00
2018-07-28T20:57:37.984Z,7.20
2018-07-28T21:00:05.419Z,7.20
2018-07-28T21:02:32.836Z,7.30
2018-07-28T21:05:00.292Z,7.50
2018-07-28T21:07:27.714Z,8.10
2018-07-28T21:09:55.191Z,7.80
2018-07-28T21:12:22.595Z,8.20
2018-07-28T21:14:50.138Z,8.10
2018-07-28T21:17:17.524Z,8.30
2018-07-28T21:19:44.956Z,8.30
2018-07-28T21:22:12.368Z,8.30
2018-07-28T21:24:39.825Z,8.40
2018-07-28T21:27:07.264Z,8.60
2018-07-28T21:29:34.905Z,8.40
2018-07-28T21:32:02.508Z,8.60
2018-07-28T21:34:30.317Z,8.80
2018-07-28T21:36:57.716Z,8.80
2018-07-28T21:39:25.328Z,8.90
2018-07-28T21:41:52.730Z,8.90
2018-07-28T21:44:20.238Z,8.70
2018-07-28T21:46:47.653Z,8.90
2018-07-28T21:49:15.078Z,8.90
2018-07-28T21:51:42.512Z,8.90
2018-07-28T21:54:10.016Z,9.10
2018-07-28T21:56:37.481Z,9.10
2018-07-28T21:59:04.913Z,9.20
2018-07-28T22:01:32.464Z,9.20
2018-07-28T22:04:02.117Z,9.40
2018-07-28T22:06:30.133Z,9.40
2018-07-28T22:08:57.555Z,9.40
2018-07-28T22:11:25.018Z,9.50
2018-07-28T22:13:52.477Z,10.40
2018-07-28T22:16:19.922Z,10.90
2018-07-28T22:18:47.617Z,10.20
2018-07-28T22:21:15.120Z,9.80
2018-07-28T22:23:42.548Z,9.70
2018-07-28T22:26:09.980Z,9.70
2018-07-28T22:28:37.565Z,9.80
2018-07-28T22:31:04.989Z,9.90
2018-07-28T22:33:32.416Z,11.50
2018-07-28T22:35:59.865Z,10.80
2018-07-28T22:38:27.501Z,10.70
2018-07-28T22:40:54.972Z,10.70
2018-07-28T22:43:23.128Z,11.10
2018-07-28T22:45:50.561Z,11.70
2018-07-28T22:48:18.004Z,12.10
2018-07-28T22:50:45.480Z,12.70
2018-07-28T22:53:12.901Z,13.10
2018-07-28T22:55:40.366Z,13.30
2018-07-28T22:58:07.808Z,13.50
2018-07-28T23:00:35.324Z,13.90
2018-07-28T23:03:02.761Z,14.20
2018-07-28T23:05:30.241Z,14.30
2018-07-28T23:07:57.658Z,14.40
2018-07-28T23:10:25.114Z,14.40
2018-07-28T23:12:52.549Z,14.50
2018-07-28T23:15:19.999Z,14.70
2018-07-28T23:17:47.442Z,14.70
2018-07-28T23:20:14.903Z,15.30
2018-07-28T23:22:42.334Z,15.50
2018-07-28T23:25:09.796Z,16.40
2018-07-28T23:27:37.228Z,16.40
2018-07-28T23:30:06.373Z,17.10
2018-07-28T23:32:33.800Z,17.40
2018-07-28T23:35:01.329Z,17.50
2018-07-28T23:37:28.765Z,18.00
2018-07-28T23:39:56.228Z,18.00
2018-07-28T23:42:23.716Z,18.00
2018-07-28T23:47:18.628Z,17.50
2018-07-28T23:49:46.077Z,17.90
2018-07-28T23:52:13.796Z,17.80
2018-07-28T23:54:41.257Z,18.60
2018-07-28T23:57:08.705Z,17.80
2018-07-28T23:59:36.168Z,19.30
